sensor_id;sensor_type;location;lat;lon;timestamp;P1;durP1;ratioP1;P2;durP2;ratioP2
79414;SDS011;68864;44.972;19.612;2024-03-17T00:01:38;54.50;;;29.52;;
79414;SDS011;68864;44.972;19.612;2024-03-17T00:04:06;55.38;;;35.33;;
79414;SDS011;68864;44.972;19.612;2024-03-17T00:06:35;52.38;;;37.50;;
79414;SDS011;68864;44.972;19.612;2024-03-17T00:09:01;61.33;;;36.10;;
79414;SDS011;68864;44.972;19.612;2024-03-17T00:11:31;50.55;;;35.78;;
79414;SDS011;68864;44.972;19.612;2024-03-17T00:13:57;46.97;;;27.23;;
79414;SDS011;68864;44.972;19.612;2024-03-17T00:16:24;56.78;;;36.33;;
79414;SDS011;68864;44.972;19.612;2024-03-17T00:18:50;54.42;;;36.80;;
79414;SDS011;68864;44.972;19.612;2024-03-17T00:23:46;56.40;;;28.58;;
79414;SDS011;68864;44.972;19.612;2024-03-17T00:26:14;56.88;;;32.22;;
79414;SDS011;68864;44.972;19.612;2024-03-17T00:28:40;57.60;;;36.83;;
79414;SDS011;68864;44.972;19.612;2024-03-17T00:31:07;60.08;;;32.15;;
79414;SDS011;68864;44.972;19.612;2024-03-17T00:33:35;57.15;;;35.90;;
79414;SDS011;68864;44.972;19.612;2024-03-17T00:36:02;58.33;;;38.63;;
79414;SDS011;68864;44.972;19.612;2024-03-17T00:38:28;55.42;;;38.88;;
79414;SDS011;68864;44.972;19.612;2024-03-17T00:43:22;52.05;;;34.55;;
79414;SDS011;68864;44.972;19.612;2024-03-17T00:45:51;45.20;;;32.88;;
79414;SDS011;68864;44.972;19.612;2024-03-17T00:48:17;50.80;;;34.42;;
79414;SDS011;68864;44.972;19.612;2024-03-17T00:50:44;42.03;;;31.80;;
79414;SDS011;68864;44.972;19.612;2024-03-17T00:53:10;44.90;;;32.15;;
79414;SDS011;68864;44.972;19.612;2024-03-17T00:58:05;42.03;;;28.02;;
79414;SDS011;68864;44.972;19.612;2024-03-17T01:00:32;45.08;;;29.77;;
79414;SDS011;68864;44.972;19.612;2024-03-17T01:02:58;40.50;;;28.63;;
79414;SDS011;68864;44.972;19.612;2024-03-17T01:05:25;35.72;;;21.65;;
79414;SDS011;68864;44.972;19.612;2024-03-17T01:07:51;37.00;;;26.88;;
79414;SDS011;68864;44.972;19.612;2024-03-17T01:10:18;34.70;;;27.25;;
79414;SDS011;68864;44.972;19.612;2024-03-17T01:12:44;37.53;;;27.15;;
79414;SDS011;68864;44.972;19.612;2024-03-17T01:15:13;33.85;;;26.02;;
79414;SDS011;68864;44.972;19.612;2024-03-17T01:17:39;40.78;;;29.45;;
79414;SDS011;68864;44.972;19.612;2024-03-17T01:22:33;34.45;;;23.02;;
79414;SDS011;68864;44.972;19.612;2024-03-17T01:25:00;36.45;;;25.48;;
79414;SDS011;68864;44.972;19.612;2024-03-17T01:27:26;37.75;;;27.45;;
79414;SDS011;68864;44.972;19.612;2024-03-17T01:29:53;34.28;;;25.63;;
79414;SDS011;68864;44.972;19.612;2024-03-17T01:32:21;32.17;;;24.33;;
79414;SDS011;68864;44.972;19.612;2024-03-17T01:34:48;35.65;;;23.08;;
79414;SDS011;68864;44.972;19.612;2024-03-17T01:37:14;30.23;;;22.40;;
79414;SDS011;68864;44.972;19.612;2024-03-17T01:39:41;32.40;;;23.15;;
79414;SDS011;68864;44.972;19.612;2024-03-17T01:42:07;29.23;;;22.60;;
79414;SDS011;68864;44.972;19.612;2024-03-17T01:44:34;30.92;;;24.35;;
79414;SDS011;68864;44.972;19.612;2024-03-17T01:47:00;28.60;;;21.85;;
79414;SDS011;68864;44.972;19.612;2024-03-17T01:49:30;28.90;;;23.02;;
79414;SDS011;68864;44.972;19.612;2024-03-17T01:51:56;29.75;;;20.83;;
79414;SDS011;68864;44.972;19.612;2024-03-17T01:54:23;25.75;;;21.70;;
79414;SDS011;68864;44.972;19.612;2024-03-17T01:56:49;25.17;;;16.40;;
79414;SDS011;68864;44.972;19.612;2024-03-17T01:59:16;27.33;;;21.45;;
79414;SDS011;68864;44.972;19.612;2024-03-17T02:01:43;29.23;;;22.27;;
79414;SDS011;68864;44.972;19.612;2024-03-17T02:04:10;32.00;;;22.83;;
79414;SDS011;68864;44.972;19.612;2024-03-17T02:06:38;30.23;;;23.27;;
79414;SDS011;68864;44.972;19.612;2024-03-17T02:09:06;29.77;;;21.98;;
79414;SDS011;68864;44.972;19.612;2024-03-17T02:11:34;27.48;;;20.95;;
79414;SDS011;68864;44.972;19.612;2024-03-17T02:14:01;27.85;;;23.17;;
79414;SDS011;68864;44.972;19.612;2024-03-17T02:16:28;28.77;;;17.02;;
79414;SDS011;68864;44.972;19.612;2024-03-17T02:18:55;31.88;;;22.02;;
79414;SDS011;68864;44.972;19.612;2024-03-17T02:21:21;27.58;;;20.23;;
79414;SDS011;68864;44.972;19.612;2024-03-17T02:23:51;25.20;;;20.58;;
79414;SDS011;68864;44.972;19.612;2024-03-17T02:26:17;22.15;;;12.70;;
79414;SDS011;68864;44.972;19.612;2024-03-17T02:28:45;21.50;;;13.02;;
79414;SDS011;68864;44.972;19.612;2024-03-17T02:31:12;21.08;;;16.27;;
79414;SDS011;68864;44.972;19.612;2024-03-17T02:33:41;19.00;;;10.95;;
79414;SDS011;68864;44.972;19.612;2024-03-17T02:36:08;23.23;;;19.08;;
79414;SDS011;68864;44.972;19.612;2024-03-17T02:38:37;23.58;;;17.63;;
79414;SDS011;68864;44.972;19.612;2024-03-17T02:41:23;22.17;;;18.23;;
79414;SDS011;68864;44.972;19.612;2024-03-17T02:43:50;30.67;;;21.40;;
79414;SDS011;68864;44.972;19.612;2024-03-17T02:46:18;26.40;;;20.88;;
79414;SDS011;68864;44.972;19.612;2024-03-17T02:48:46;26.45;;;22.00;;
79414;SDS011;68864;44.972;19.612;2024-03-17T02:51:14;27.67;;;22.23;;
79414;SDS011;68864;44.972;19.612;2024-03-17T02:53:42;28.60;;;23.23;;
79414;SDS011;68864;44.972;19.612;2024-03-17T02:56:10;29.75;;;20.73;;
79414;SDS011;68864;44.972;19.612;2024-03-17T02:58:39;31.63;;;24.60;;
79414;SDS011;68864;44.972;19.612;2024-03-17T03:01:07;32.92;;;26.40;;
79414;SDS011;68864;44.972;19.612;2024-03-17T03:03:35;33.60;;;24.77;;
79414;SDS011;68864;44.972;19.612;2024-03-17T03:06:02;31.42;;;24.35;;
79414;SDS011;68864;44.972;19.612;2024-03-17T03:08:34;33.55;;;23.67;;
79414;SDS011;68864;44.972;19.612;2024-03-17T03:11:02;34.70;;;26.13;;
79414;SDS011;68864;44.972;19.612;2024-03-17T03:13:30;34.58;;;24.50;;
79414;SDS011;68864;44.972;19.612;2024-03-17T03:15:58;32.17;;;25.08;;
79414;SDS011;68864;44.972;19.612;2024-03-17T03:18:25;31.45;;;23.30;;
79414;SDS011;68864;44.972;19.612;2024-03-17T03:20:53;31.83;;;25.75;;
79414;SDS011;68864;44.972;19.612;2024-03-17T03:23:20;32.28;;;22.45;;
79414;SDS011;68864;44.972;19.612;2024-03-17T03:25:47;32.58;;;25.77;;
79414;SDS011;68864;44.972;19.612;2024-03-17T03:28:21;34.25;;;25.42;;
79414;SDS011;68864;44.972;19.612;2024-03-17T03:30:48;33.60;;;24.10;;
79414;SDS011;68864;44.972;19.612;2024-03-17T03:33:18;33.13;;;24.70;;
79414;SDS011;68864;44.972;19.612;2024-03-17T03:35:45;32.80;;;25.17;;
79414;SDS011;68864;44.972;19.612;2024-03-17T03:38:12;33.55;;;25.60;;
79414;SDS011;68864;44.972;19.612;2024-03-17T03:40:40;29.42;;;17.13;;
79414;SDS011;68864;44.972;19.612;2024-03-17T03:43:07;33.92;;;24.02;;
79414;SDS011;68864;44.972;19.612;2024-03-17T03:45:34;29.50;;;23.20;;
79414;SDS011;68864;44.972;19.612;2024-03-17T03:48:02;30.92;;;23.00;;
79414;SDS011;68864;44.972;19.612;2024-03-17T03:50:31;32.10;;;23.52;;
79414;SDS011;68864;44.972;19.612;2024-03-17T03:52:58;29.42;;;21.55;;
79414;SDS011;68864;44.972;19.612;2024-03-17T03:55:25;29.00;;;21.75;;
79414;SDS011;68864;44.972;19.612;2024-03-17T03:57:53;28.23;;;20.73;;
79414;SDS011;68864;44.972;19.612;2024-03-17T04:00:20;29.10;;;20.27;;
79414;SDS011;68864;44.972;19.612;2024-03-17T04:02:49;26.17;;;20.23;;
79414;SDS011;68864;44.972;19.612;2024-03-17T04:05:18;29.25;;;23.23;;
79414;SDS011;68864;44.972;19.612;2024-03-17T04:07:47;28.38;;;21.67;;
79414;SDS011;68864;44.972;19.612;2024-03-17T04:10:15;24.40;;;19.05;;
79414;SDS011;68864;44.972;19.612;2024-03-17T04:12:44;24.23;;;18.73;;
79414;SDS011;68864;44.972;19.612;2024-03-17T04:15:11;23.58;;;19.13;;
79414;SDS011;68864;44.972;19.612;2024-03-17T04:17:39;21.50;;;18.88;;
79414;SDS011;68864;44.972;19.612;2024-03-17T04:20:07;19.48;;;10.63;;
79414;SDS011;68864;44.972;19.612;2024-03-17T04:22:38;19.75;;;15.23;;
79414;SDS011;68864;44.972;19.612;2024-03-17T04:25:07;19.42;;;13.00;;
79414;SDS011;68864;44.972;19.612;2024-03-17T04:27:34;22.55;;;17.30;;
79414;SDS011;68864;44.972;19.612;2024-03-17T04:30:02;19.92;;;15.57;;
79414;SDS011;68864;44.972;19.612;2024-03-17T04:32:31;20.92;;;16.98;;
79414;SDS011;68864;44.972;19.612;2024-03-17T04:34:58;23.60;;;19.15;;
79414;SDS011;68864;44.972;19.612;2024-03-17T04:39:53;22.90;;;18.88;;
79414;SDS011;68864;44.972;19.612;2024-03-17T04:42:24;24.83;;;16.63;;
79414;SDS011;68864;44.972;19.612;2024-03-17T04:44:51;24.42;;;18.50;;
79414;SDS011;68864;44.972;19.612;2024-03-17T04:49:45;21.80;;;16.20;;
79414;SDS011;68864;44.972;19.612;2024-03-17T04:52:12;21.67;;;15.40;;
79414;SDS011;68864;44.972;19.612;2024-03-17T04:54:40;23.42;;;18.13;;
79414;SDS011;68864;44.972;19.612;2024-03-17T04:57:08;18.27;;;10.30;;
79414;SDS011;68864;44.972;19.612;2024-03-17T04:59:37;28.05;;;18.13;;
79414;SDS011;68864;44.972;19.612;2024-03-17T05:02:04;20.67;;;15.93;;
79414;SDS011;68864;44.972;19.612;2024-03-17T05:04:32;19.42;;;11.82;;
79414;SDS011;68864;44.972;19.612;2024-03-17T05:06:59;20.88;;;14.88;;
79414;SDS011;68864;44.972;19.612;2024-03-17T05:11:53;30.27;;;19.70;;
79414;SDS011;68864;44.972;19.612;2024-03-17T05:14:20;21.48;;;13.85;;
79414;SDS011;68864;44.972;19.612;2024-03-17T05:19:17;19.10;;;14.00;;
79414;SDS011;68864;44.972;19.612;2024-03-17T05:21:44;17.50;;;11.82;;
79414;SDS011;68864;44.972;19.612;2024-03-17T05:24:11;16.67;;;13.02;;
79414;SDS011;68864;44.972;19.612;2024-03-17T05:26:38;16.10;;;12.02;;
79414;SDS011;68864;44.972;19.612;2024-03-17T05:29:07;14.38;;;8.25;;
79414;SDS011;68864;44.972;19.612;2024-03-17T05:31:34;15.45;;;12.02;;
79414;SDS011;68864;44.972;19.612;2024-03-17T05:34:03;18.05;;;13.38;;
79414;SDS011;68864;44.972;19.612;2024-03-17T05:36:30;19.33;;;15.55;;
79414;SDS011;68864;44.972;19.612;2024-03-17T05:38:58;19.48;;;10.65;;
79414;SDS011;68864;44.972;19.612;2024-03-17T05:41:26;20.15;;;15.25;;
79414;SDS011;68864;44.972;19.612;2024-03-17T05:43:53;22.58;;;14.80;;
79414;SDS011;68864;44.972;19.612;2024-03-17T05:46:23;16.30;;;12.90;;
79414;SDS011;68864;44.972;19.612;2024-03-17T05:48:52;17.65;;;8.15;;
79414;SDS011;68864;44.972;19.612;2024-03-17T05:51:20;13.88;;;10.60;;
79414;SDS011;68864;44.972;19.612;2024-03-17T05:53:50;15.48;;;11.32;;
79414;SDS011;68864;44.972;19.612;2024-03-17T05:56:17;14.20;;;11.68;;
79414;SDS011;68864;44.972;19.612;2024-03-17T06:01:12;10.25;;;7.90;;
79414;SDS011;68864;44.972;19.612;2024-03-17T06:03:39;11.15;;;8.75;;
79414;SDS011;68864;44.972;19.612;2024-03-17T06:06:07;13.13;;;9.68;;
79414;SDS011;68864;44.972;19.612;2024-03-17T06:08:36;16.65;;;11.57;;
79414;SDS011;68864;44.972;19.612;2024-03-17T06:11:04;15.70;;;11.13;;
79414;SDS011;68864;44.972;19.612;2024-03-17T06:13:31;12.55;;;9.63;;
79414;SDS011;68864;44.972;19.612;2024-03-17T06:18:26;10.48;;;9.13;;
79414;SDS011;68864;44.972;19.612;2024-03-17T06:20:54;10.43;;;7.82;;
79414;SDS011;68864;44.972;19.612;2024-03-17T06:23:23;8.68;;;3.97;;
79414;SDS011;68864;44.972;19.612;2024-03-17T06:25:53;10.95;;;8.10;;
79414;SDS011;68864;44.972;19.612;2024-03-17T06:28:21;13.93;;;8.10;;
79414;SDS011;68864;44.972;19.612;2024-03-17T06:30:55;15.95;;;8.40;;
79414;SDS011;68864;44.972;19.612;2024-03-17T06:33:25;12.13;;;8.93;;
79414;SDS011;68864;44.972;19.612;2024-03-17T06:35:53;15.32;;;10.43;;
79414;SDS011;68864;44.972;19.612;2024-03-17T06:38:21;15.88;;;11.65;;
79414;SDS011;68864;44.972;19.612;2024-03-17T06:40:48;13.15;;;11.63;;
79414;SDS011;68864;44.972;19.612;2024-03-17T06:43:18;9.70;;;4.78;;
79414;SDS011;68864;44.972;19.612;2024-03-17T06:45:53;13.50;;;9.75;;
79414;SDS011;68864;44.972;19.612;2024-03-17T06:48:21;11.65;;;8.48;;
79414;SDS011;68864;44.972;19.612;2024-03-17T06:53:16;11.88;;;8.65;;
79414;SDS011;68864;44.972;19.612;2024-03-17T06:55:44;9.68;;;3.97;;
79414;SDS011;68864;44.972;19.612;2024-03-17T06:58:19;17.67;;;11.38;;
79414;SDS011;68864;44.972;19.612;2024-03-17T07:00:52;15.40;;;11.63;;
79414;SDS011;68864;44.972;19.612;2024-03-17T07:03:19;11.95;;;8.80;;
79414;SDS011;68864;44.972;19.612;2024-03-17T07:08:17;10.85;;;8.40;;
79414;SDS011;68864;44.972;19.612;2024-03-17T07:10:54;8.82;;;7.68;;
79414;SDS011;68864;44.972;19.612;2024-03-17T07:13:23;8.80;;;3.40;;
79414;SDS011;68864;44.972;19.612;2024-03-17T07:15:51;10.00;;;8.80;;
79414;SDS011;68864;44.972;19.612;2024-03-17T07:18:18;9.70;;;6.78;;
79414;SDS011;68864;44.972;19.612;2024-03-17T07:20:45;11.82;;;8.40;;
79414;SDS011;68864;44.972;19.612;2024-03-17T07:23:13;8.43;;;6.93;;
79414;SDS011;68864;44.972;19.612;2024-03-17T07:25:40;10.82;;;7.20;;
79414;SDS011;68864;44.972;19.612;2024-03-17T07:30:36;13.52;;;8.43;;
79414;SDS011;68864;44.972;19.612;2024-03-17T07:33:03;28.38;;;14.10;;
79414;SDS011;68864;44.972;19.612;2024-03-17T07:35:30;11.13;;;4.05;;
79414;SDS011;68864;44.972;19.612;2024-03-17T07:40:24;9.25;;;7.32;;
79414;SDS011;68864;44.972;19.612;2024-03-17T07:45:18;7.07;;;5.05;;
79414;SDS011;68864;44.972;19.612;2024-03-17T07:50:16;6.75;;;2.90;;
79414;SDS011;68864;44.972;19.612;2024-03-17T07:52:44;6.75;;;5.40;;
79414;SDS011;68864;44.972;19.612;2024-03-17T07:57:38;7.93;;;4.88;;
79414;SDS011;68864;44.972;19.612;2024-03-17T08:00:06;9.40;;;6.72;;
79414;SDS011;68864;44.972;19.612;2024-03-17T08:02:41;9.07;;;4.20;;
79414;SDS011;68864;44.972;19.612;2024-03-17T08:05:09;9.43;;;8.43;;
79414;SDS011;68864;44.972;19.612;2024-03-17T08:07:36;7.22;;;2.45;;
79414;SDS011;68864;44.972;19.612;2024-03-17T08:10:04;7.75;;;2.42;;
79414;SDS011;68864;44.972;19.612;2024-03-17T08:12:31;6.88;;;4.07;;
79414;SDS011;68864;44.972;19.612;2024-03-17T08:14:58;7.40;;;4.43;;
79414;SDS011;68864;44.972;19.612;2024-03-17T08:17:25;4.93;;;3.47;;
79414;SDS011;68864;44.972;19.612;2024-03-17T08:19:53;5.65;;;3.47;;
79414;SDS011;68864;44.972;19.612;2024-03-17T08:22:21;5.53;;;4.50;;
79414;SDS011;68864;44.972;19.612;2024-03-17T08:24:48;6.10;;;5.50;;
79414;SDS011;68864;44.972;19.612;2024-03-17T08:27:15;9.45;;;6.47;;
79414;SDS011;68864;44.972;19.612;2024-03-17T08:29:42;5.78;;;4.60;;
79414;SDS011;68864;44.972;19.612;2024-03-17T08:32:09;16.33;;;10.10;;
79414;SDS011;68864;44.972;19.612;2024-03-17T08:34:37;16.13;;;5.97;;
79414;SDS011;68864;44.972;19.612;2024-03-17T08:37:04;12.15;;;5.85;;
79414;SDS011;68864;44.972;19.612;2024-03-17T08:39:32;7.68;;;4.25;;
79414;SDS011;68864;44.972;19.612;2024-03-17T08:41:59;11.30;;;6.13;;
79414;SDS011;68864;44.972;19.612;2024-03-17T08:44:26;8.02;;;4.57;;
79414;SDS011;68864;44.972;19.612;2024-03-17T08:46:53;8.05;;;4.95;;
79414;SDS011;68864;44.972;19.612;2024-03-17T08:49:22;7.32;;;4.93;;
79414;SDS011;68864;44.972;19.612;2024-03-17T08:51:49;6.38;;;4.82;;
79414;SDS011;68864;44.972;19.612;2024-03-17T08:54:16;6.57;;;4.68;;
79414;SDS011;68864;44.972;19.612;2024-03-17T08:56:45;9.38;;;6.32;;
79414;SDS011;68864;44.972;19.612;2024-03-17T08:59:12;9.50;;;5.03;;
79414;SDS011;68864;44.972;19.612;2024-03-17T09:01:39;7.10;;;6.43;;
79414;SDS011;68864;44.972;19.612;2024-03-17T09:04:06;4.63;;;3.95;;
79414;SDS011;68864;44.972;19.612;2024-03-17T09:06:33;5.72;;;4.53;;
79414;SDS011;68864;44.972;19.612;2024-03-17T09:09:00;5.05;;;4.55;;
79414;SDS011;68864;44.972;19.612;2024-03-17T09:11:28;5.28;;;2.85;;
79414;SDS011;68864;44.972;19.612;2024-03-17T09:13:57;4.72;;;4.32;;
79414;SDS011;68864;44.972;19.612;2024-03-17T09:16:24;3.97;;;1.33;;
79414;SDS011;68864;44.972;19.612;2024-03-17T09:18:53;4.15;;;2.60;;
79414;SDS011;68864;44.972;19.612;2024-03-17T09:21:20;2.30;;;0.77;;
79414;SDS011;68864;44.972;19.612;2024-03-17T09:23:48;4.55;;;4.13;;
79414;SDS011;68864;44.972;19.612;2024-03-17T09:26:15;2.92;;;1.45;;
79414;SDS011;68864;44.972;19.612;2024-03-17T09:28:43;4.22;;;3.40;;
79414;SDS011;68864;44.972;19.612;2024-03-17T09:31:11;8.57;;;4.15;;
79414;SDS011;68864;44.972;19.612;2024-03-17T09:33:38;5.10;;;1.65;;
79414;SDS011;68864;44.972;19.612;2024-03-17T09:36:06;5.07;;;1.83;;
79414;SDS011;68864;44.972;19.612;2024-03-17T09:38:36;6.70;;;3.92;;
79414;SDS011;68864;44.972;19.612;2024-03-17T09:41:05;5.47;;;1.73;;
79414;SDS011;68864;44.972;19.612;2024-03-17T09:43:33;3.40;;;0.75;;
79414;SDS011;68864;44.972;19.612;2024-03-17T09:46:01;4.88;;;4.38;;
79414;SDS011;68864;44.972;19.612;2024-03-17T09:48:30;3.97;;;3.38;;
79414;SDS011;68864;44.972;19.612;2024-03-17T09:50:59;5.35;;;3.83;;
79414;SDS011;68864;44.972;19.612;2024-03-17T09:53:27;3.90;;;2.60;;
79414;SDS011;68864;44.972;19.612;2024-03-17T09:55:57;4.68;;;3.30;;
79414;SDS011;68864;44.972;19.612;2024-03-17T09:58:25;4.70;;;0.85;;
79414;SDS011;68864;44.972;19.612;2024-03-17T10:00:52;5.90;;;2.70;;
79414;SDS011;68864;44.972;19.612;2024-03-17T10:06:08;4.18;;;3.55;;
79414;SDS011;68864;44.972;19.612;2024-03-17T10:08:40;3.53;;;2.97;;
79414;SDS011;68864;44.972;19.612;2024-03-17T10:11:08;3.20;;;1.95;;
79414;SDS011;68864;44.972;19.612;2024-03-17T10:13:36;3.80;;;2.83;;
79414;SDS011;68864;44.972;19.612;2024-03-17T10:16:03;5.28;;;4.70;;
79414;SDS011;68864;44.972;19.612;2024-03-17T10:18:30;4.75;;;3.15;;
79414;SDS011;68864;44.972;19.612;2024-03-17T10:21:00;3.47;;;2.17;;
79414;SDS011;68864;44.972;19.612;2024-03-17T10:23:27;4.95;;;4.07;;
79414;SDS011;68864;44.972;19.612;2024-03-17T10:25:54;5.55;;;4.20;;
79414;SDS011;68864;44.972;19.612;2024-03-17T10:28:21;4.63;;;2.63;;
79414;SDS011;68864;44.972;19.612;2024-03-17T10:30:58;4.22;;;3.80;;
79414;SDS011;68864;44.972;19.612;2024-03-17T10:33:26;6.15;;;3.42;;
79414;SDS011;68864;44.972;19.612;2024-03-17T10:36:01;3.60;;;1.45;;
79414;SDS011;68864;44.972;19.612;2024-03-17T10:38:30;3.90;;;1.88;;
79414;SDS011;68864;44.972;19.612;2024-03-17T10:41:00;5.80;;;1.85;;
79414;SDS011;68864;44.972;19.612;2024-03-17T10:43:27;6.18;;;2.70;;
79414;SDS011;68864;44.972;19.612;2024-03-17T10:45:56;6.55;;;3.83;;
79414;SDS011;68864;44.972;19.612;2024-03-17T10:48:26;8.68;;;3.72;;
79414;SDS011;68864;44.972;19.612;2024-03-17T10:50:58;8.02;;;5.20;;
79414;SDS011;68864;44.972;19.612;2024-03-17T10:53:28;5.15;;;2.22;;
79414;SDS011;68864;44.972;19.612;2024-03-17T10:56:00;9.77;;;3.95;;
79414;SDS011;68864;44.972;19.612;2024-03-17T10:58:34;5.68;;;4.63;;
79414;SDS011;68864;44.972;19.612;2024-03-17T11:01:03;7.10;;;5.57;;
79414;SDS011;68864;44.972;19.612;2024-03-17T11:03:31;7.97;;;4.97;;
79414;SDS011;68864;44.972;19.612;2024-03-17T11:06:02;9.90;;;2.42;;
79414;SDS011;68864;44.972;19.612;2024-03-17T11:08:31;8.35;;;5.15;;
79414;SDS011;68864;44.972;19.612;2024-03-17T11:10:59;5.38;;;4.18;;
79414;SDS011;68864;44.972;19.612;2024-03-17T11:13:26;6.43;;;2.35;;
79414;SDS011;68864;44.972;19.612;2024-03-17T11:15:55;13.07;;;6.60;;
79414;SDS011;68864;44.972;19.612;2024-03-17T11:18:36;5.03;;;2.05;;
79414;SDS011;68864;44.972;19.612;2024-03-17T11:23:56;7.97;;;3.58;;
79414;SDS011;68864;44.972;19.612;2024-03-17T11:26:31;2.92;;;0.73;;
79414;SDS011;68864;44.972;19.612;2024-03-17T11:29:00;4.80;;;3.10;;
79414;SDS011;68864;44.972;19.612;2024-03-17T11:31:42;4.45;;;2.78;;
79414;SDS011;68864;44.972;19.612;2024-03-17T11:36:57;5.30;;;1.48;;
79414;SDS011;68864;44.972;19.612;2024-03-17T11:42:20;4.80;;;2.92;;
79414;SDS011;68864;44.972;19.612;2024-03-17T11:44:58;3.35;;;0.88;;
79414;SDS011;68864;44.972;19.612;2024-03-17T11:50:10;5.97;;;3.38;;
79414;SDS011;68864;44.972;19.612;2024-03-17T11:52:39;5.60;;;1.63;;
79414;SDS011;68864;44.972;19.612;2024-03-17T11:55:15;7.85;;;2.72;;
79414;SDS011;68864;44.972;19.612;2024-03-17T11:57:42;6.30;;;2.35;;
79414;SDS011;68864;44.972;19.612;2024-03-17T12:00:18;15.65;;;8.02;;
79414;SDS011;68864;44.972;19.612;2024-03-17T12:02:47;8.00;;;3.88;;
79414;SDS011;68864;44.972;19.612;2024-03-17T12:05:15;6.03;;;1.15;;
79414;SDS011;68864;44.972;19.612;2024-03-17T12:07:43;3.97;;;1.92;;
79414;SDS011;68864;44.972;19.612;2024-03-17T12:10:10;5.05;;;3.13;;
79414;SDS011;68864;44.972;19.612;2024-03-17T12:12:38;3.63;;;1.13;;
79414;SDS011;68864;44.972;19.612;2024-03-17T12:15:15;14.35;;;6.05;;
79414;SDS011;68864;44.972;19.612;2024-03-17T12:17:43;15.98;;;9.25;;
79414;SDS011;68864;44.972;19.612;2024-03-17T12:20:19;6.28;;;1.80;;
79414;SDS011;68864;44.972;19.612;2024-03-17T12:22:48;3.38;;;1.08;;
79414;SDS011;68864;44.972;19.612;2024-03-17T12:25:16;4.57;;;2.22;;
79414;SDS011;68864;44.972;19.612;2024-03-17T12:27:44;3.65;;;0.98;;
79414;SDS011;68864;44.972;19.612;2024-03-17T12:30:13;2.60;;;0.57;;
79414;SDS011;68864;44.972;19.612;2024-03-17T12:32:40;4.28;;;3.35;;
79414;SDS011;68864;44.972;19.612;2024-03-17T12:35:12;5.88;;;1.88;;
79414;SDS011;68864;44.972;19.612;2024-03-17T12:37:39;8.88;;;5.18;;
79414;SDS011;68864;44.972;19.612;2024-03-17T12:42:46;4.53;;;3.38;;
79414;SDS011;68864;44.972;19.612;2024-03-17T12:45:14;2.17;;;0.52;;
79414;SDS011;68864;44.972;19.612;2024-03-17T12:47:46;2.65;;;0.57;;
79414;SDS011;68864;44.972;19.612;2024-03-17T12:50:14;10.82;;;5.22;;
79414;SDS011;68864;44.972;19.612;2024-03-17T12:52:40;8.95;;;3.22;;
79414;SDS011;68864;44.972;19.612;2024-03-17T12:55:19;8.93;;;2.38;;
79414;SDS011;68864;44.972;19.612;2024-03-17T12:58:07;5.75;;;2.50;;
79414;SDS011;68864;44.972;19.612;2024-03-17T13:00:59;6.60;;;4.32;;
79414;SDS011;68864;44.972;19.612;2024-03-17T13:03:27;4.45;;;1.08;;
79414;SDS011;68864;44.972;19.612;2024-03-17T13:05:57;4.13;;;1.25;;
79414;SDS011;68864;44.972;19.612;2024-03-17T13:08:24;5.85;;;4.78;;
79414;SDS011;68864;44.972;19.612;2024-03-17T13:10:52;2.85;;;0.55;;
79414;SDS011;68864;44.972;19.612;2024-03-17T13:13:19;3.78;;;1.60;;
79414;SDS011;68864;44.972;19.612;2024-03-17T13:18:15;5.10;;;2.00;;
79414;SDS011;68864;44.972;19.612;2024-03-17T13:20:44;4.88;;;1.15;;
79414;SDS011;68864;44.972;19.612;2024-03-17T13:23:12;7.50;;;2.78;;
79414;SDS011;68864;44.972;19.612;2024-03-17T13:25:39;5.88;;;3.63;;
79414;SDS011;68864;44.972;19.612;2024-03-17T13:28:10;6.53;;;2.05;;
79414;SDS011;68864;44.972;19.612;2024-03-17T13:30:37;6.47;;;2.03;;
79414;SDS011;68864;44.972;19.612;2024-03-17T13:33:05;4.85;;;1.27;;
79414;SDS011;68864;44.972;19.612;2024-03-17T13:35:35;6.40;;;2.28;;
79414;SDS011;68864;44.972;19.612;2024-03-17T13:38:04;3.70;;;1.30;;
79414;SDS011;68864;44.972;19.612;2024-03-17T13:40:33;6.85;;;4.88;;
79414;SDS011;68864;44.972;19.612;2024-03-17T13:43:00;4.30;;;1.05;;
79414;SDS011;68864;44.972;19.612;2024-03-17T13:45:30;3.22;;;1.13;;
79414;SDS011;68864;44.972;19.612;2024-03-17T13:48:04;4.75;;;4.22;;
79414;SDS011;68864;44.972;19.612;2024-03-17T13:50:36;5.15;;;3.42;;
79414;SDS011;68864;44.972;19.612;2024-03-17T13:53:04;3.33;;;0.75;;
79414;SDS011;68864;44.972;19.612;2024-03-17T13:55:32;2.15;;;0.47;;
79414;SDS011;68864;44.972;19.612;2024-03-17T13:58:00;3.75;;;2.20;;
79414;SDS011;68864;44.972;19.612;2024-03-17T14:00:31;5.20;;;4.72;;
79414;SDS011;68864;44.972;19.612;2024-03-17T14:03:01;3.33;;;0.60;;
79414;SDS011;68864;44.972;19.612;2024-03-17T14:05:28;3.65;;;1.52;;
79414;SDS011;68864;44.972;19.612;2024-03-17T14:07:58;2.97;;;1.27;;
79414;SDS011;68864;44.972;19.612;2024-03-17T14:10:25;2.53;;;0.95;;
79414;SDS011;68864;44.972;19.612;2024-03-17T14:12:52;4.30;;;0.85;;
79414;SDS011;68864;44.972;19.612;2024-03-17T14:15:20;3.35;;;0.55;;
79414;SDS011;68864;44.972;19.612;2024-03-17T14:17:50;1.80;;;0.32;;
79414;SDS011;68864;44.972;19.612;2024-03-17T14:20:17;3.15;;;1.80;;
79414;SDS011;68864;44.972;19.612;2024-03-17T14:22:45;6.55;;;0.65;;
79414;SDS011;68864;44.972;19.612;2024-03-17T14:25:18;2.30;;;0.43;;
79414;SDS011;68864;44.972;19.612;2024-03-17T14:27:46;2.42;;;0.40;;
79414;SDS011;68864;44.972;19.612;2024-03-17T14:30:15;3.67;;;0.55;;
79414;SDS011;68864;44.972;19.612;2024-03-17T14:32:43;3.90;;;0.45;;
79414;SDS011;68864;44.972;19.612;2024-03-17T14:35:12;5.53;;;5.03;;
79414;SDS011;68864;44.972;19.612;2024-03-17T14:37:40;2.03;;;0.30;;
79414;SDS011;68864;44.972;19.612;2024-03-17T14:40:08;3.13;;;0.30;;
79414;SDS011;68864;44.972;19.612;2024-03-17T14:42:41;4.47;;;1.08;;
79414;SDS011;68864;44.972;19.612;2024-03-17T14:47:36;3.03;;;0.82;;
79414;SDS011;68864;44.972;19.612;2024-03-17T14:50:04;5.78;;;2.63;;
79414;SDS011;68864;44.972;19.612;2024-03-17T14:52:33;21.80;;;14.45;;
79414;SDS011;68864;44.972;19.612;2024-03-17T14:55:01;22.67;;;14.07;;
79414;SDS011;68864;44.972;19.612;2024-03-17T14:57:29;8.98;;;6.53;;
79414;SDS011;68864;44.972;19.612;2024-03-17T14:59:56;11.00;;;5.97;;
79414;SDS011;68864;44.972;19.612;2024-03-17T15:02:24;5.95;;;1.88;;
79414;SDS011;68864;44.972;19.612;2024-03-17T15:04:51;6.60;;;3.72;;
79414;SDS011;68864;44.972;19.612;2024-03-17T15:07:18;8.25;;;3.47;;
79414;SDS011;68864;44.972;19.612;2024-03-17T15:09:47;6.95;;;3.05;;
79414;SDS011;68864;44.972;19.612;2024-03-17T15:12:14;8.43;;;3.58;;
79414;SDS011;68864;44.972;19.612;2024-03-17T15:17:09;6.75;;;4.50;;
79414;SDS011;68864;44.972;19.612;2024-03-17T15:22:07;4.68;;;1.52;;
79414;SDS011;68864;44.972;19.612;2024-03-17T15:24:34;3.92;;;1.10;;
79414;SDS011;68864;44.972;19.612;2024-03-17T15:29:30;5.38;;;3.17;;
79414;SDS011;68864;44.972;19.612;2024-03-17T15:31:57;5.93;;;3.63;;
79414;SDS011;68864;44.972;19.612;2024-03-17T15:36:53;6.93;;;4.05;;
79414;SDS011;68864;44.972;19.612;2024-03-17T15:39:20;4.60;;;3.10;;
79414;SDS011;68864;44.972;19.612;2024-03-17T15:44:15;2.95;;;1.42;;
79414;SDS011;68864;44.972;19.612;2024-03-17T15:46:42;3.13;;;0.93;;